Time;durP1;ratioP1;P1;durP2;ratioP2;P2;SDS_P1;SDS_P2;PMS_P1;PMS_P2;Temp;Humidity;BMP_temperature;BMP_pressure;BME280_temperature;BME280_humidity;BME280_pressure;Samples;Min_cycle;Max_cycle;Signal;HPM_P1;HPM_P2
2022/04/11 00:02:23;;;;;;;5.93;2.53;;;12.10;35.70;;;;;;5054045;28;20046;-72
2022/04/11 00:04:49;;;;;;;5.45;2.38;;;12.10;35.60;;;;;;5054297;28;20451;-72
2022/04/11 00:07:15;;;;;;;5.97;2.55;;;12.00;35.10;;;;;;5054077;28;20110;-72
2022/04/11 00:09:42;;;;;;;5.75;2.38;;;11.90;35.00;;;;;;5053951;28;20393;-70
2022/04/11 00:12:09;;;;;;;3.63;2.10;;;11.80;35.10;;;;;;5053826;28;20021;-70
2022/04/11 00:14:35;;;;;;;4.82;2.30;;;11.80;34.80;;;;;;5053779;28;20025;-70
2022/04/11 00:17:00;;;;;;;5.35;2.55;;;11.70;35.20;;;;;;5036121;28;20436;-71
2022/04/11 00:19:26;;;;;;;6.50;2.35;;;11.60;35.20;;;;;;5054031;28;20028;-70
2022/04/11 00:21:52;;;;;;;5.40;2.17;;;11.60;35.30;;;;;;5053785;28;20401;-70
2022/04/11 00:24:17;;;;;;;4.65;2.20;;;11.50;35.20;;;;;;5053863;28;20115;-72
2022/04/11 00:26:43;;;;;;;4.10;2.25;;;11.50;35.40;;;;;;5053659;28;20025;-71
2022/04/11 00:29:09;;;;;;;5.53;2.47;;;11.50;35.60;;;;;;5035748;28;20025;-72
2022/04/11 00:31:34;;;;;;;4.47;2.28;;;11.50;35.80;;;;;;5053500;28;20056;-72
2022/04/11 00:34:00;;;;;;;4.22;2.30;;;11.40;35.80;;;;;;5053615;28;20099;-70
2022/04/11 00:36:26;;;;;;;5.30;2.50;;;11.40;35.90;;;;;;5053573;28;20051;-72
2022/04/11 00:38:51;;;;;;;6.53;2.53;;;11.40;36.60;;;;;;5053426;28;20039;-70
2022/04/11 00:41:17;;;;;;;5.82;2.78;;;11.40;36.10;;;;;;5053380;28;20036;-72
2022/04/11 00:43:43;;;;;;;5.90;2.55;;;11.40;36.40;;;;;;5053124;28;20036;-71
2022/04/11 00:46:10;;;;;;;6.75;3.03;;;11.40;36.50;;;;;;5053442;28;20092;-74
2022/04/11 00:48:36;;;;;;;5.60;2.50;;;11.40;36.50;;;;;;5053091;28;20047;-70
2022/04/11 00:51:19;;;;;;;5.35;3.00;;;11.50;36.80;;;;;;5053185;28;20402;-74
2022/04/11 00:53:46;;;;;;;7.57;3.05;;;11.50;36.00;;;;;;5053210;28;20119;-75
2022/04/11 00:56:15;;;;;;;5.30;2.85;;;11.50;37.20;;;;;;5053238;28;20216;-70
2022/04/11 00:58:41;;;;;;;8.40;3.08;;;11.50;37.20;;;;;;5053106;28;20473;-73
2022/04/11 01:01:08;;;;;;;5.82;2.95;;;11.40;36.80;;;;;;5053132;28;20036;-71
2022/04/11 01:03:34;;;;;;;5.40;2.80;;;11.40;37.10;;;;;;5053255;28;20489;-70
2022/04/11 01:06:01;;;;;;;7.63;3.00;;;11.30;37.40;;;;;;5035336;28;20486;-71
2022/04/11 01:08:27;;;;;;;7.00;4.07;;;11.30;37.60;;;;;;5053011;28;20373;-72
2022/04/11 01:10:53;;;;;;;7.57;4.22;;;11.20;37.30;;;;;;5052956;28;20021;-72
2022/04/11 01:13:19;;;;;;;8.98;5.60;;;11.10;37.50;;;;;;5052662;28;20041;-72
2022/04/11 01:15:58;;;;;;;11.65;7.60;;;11.10;37.80;;;;;;5052940;28;20021;-71
2022/04/11 01:18:24;;;;;;;9.70;6.80;;;11.10;37.30;;;;;;5052756;28;20466;-72
2022/04/11 01:20:50;;;;;;;12.70;8.25;;;11.10;38.00;;;;;;5052703;28;20429;-72
2022/04/11 01:23:16;;;;;;;11.20;8.48;;;11.10;38.10;;;;;;5052638;28;20482;-71
2022/04/11 01:25:48;;;;;;;12.93;8.07;;;11.10;38.50;;;;;;5052722;28;20052;-71
2022/04/11 01:28:14;;;;;;;11.73;7.68;;;11.10;38.50;;;;;;5052510;28;20492;-71
2022/04/11 01:30:39;;;;;;;14.32;8.68;;;11.10;38.80;;;;;;5052712;28;20029;-70
2022/04/11 01:33:20;;;;;;;10.95;7.13;;;11.10;39.70;;;;;;5034677;28;20048;-70
2022/04/11 01:35:46;;;;;;;17.15;7.78;;;11.10;39.00;;;;;;5052589;28;20048;-71
2022/04/11 01:38:12;;;;;;;12.68;7.30;;;11.00;39.30;;;;;;5052560;28;20033;-70
2022/04/11 01:40:46;;;;;;;10.38;6.72;;;11.00;39.60;;;;;;5052533;28;20029;-73
2022/04/11 01:43:11;;;;;;;12.35;6.90;;;11.00;40.10;;;;;;5052677;28;20078;-76
2022/04/11 01:45:37;;;;;;;11.82;7.30;;;11.00;39.70;;;;;;5052472;28;20029;-73
2022/04/11 01:48:03;;;;;;;10.63;6.65;;;10.90;39.80;;;;;;5052440;28;20037;-76
2022/04/11 01:50:28;;;;;;;10.00;6.22;;;10.90;40.00;;;;;;5052656;28;20095;-73
2022/04/11 01:52:54;;;;;;;12.43;6.82;;;10.80;40.00;;;;;;5052995;28;20449;-74
2022/04/11 01:55:20;;;;;;;10.10;5.97;;;10.70;40.00;;;;;;5052392;28;20347;-72
2022/04/11 01:57:45;;;;;;;8.63;4.60;;;10.60;40.30;;;;;;5052400;28;20025;-74
2022/04/11 02:00:12;;;;;;;11.18;4.60;;;10.50;40.20;;;;;;5034634;28;20427;-75
2022/04/11 02:02:37;;;;;;;11.27;5.10;;;10.50;40.40;;;;;;5052021;28;20118;-74
2022/04/11 02:05:03;;;;;;;9.20;5.40;;;10.50;40.70;;;;;;5052265;28;20029;-74
2022/04/11 02:07:29;;;;;;;8.35;5.05;;;10.40;40.50;;;;;;5052287;28;20033;-73
2022/04/11 02:09:54;;;;;;;7.63;4.60;;;10.40;40.70;;;;;;5052235;28;20028;-75
2022/04/11 02:12:20;;;;;;;10.20;5.00;;;10.40;40.90;;;;;;5052101;28;20029;-75
2022/04/11 02:14:46;;;;;;;7.00;4.50;;;10.40;40.80;;;;;;5052100;28;20033;-72
2022/04/11 02:17:11;;;;;;;9.30;5.20;;;10.50;41.00;;;;;;5052326;28;20029;-74
2022/04/11 02:19:37;;;;;;;8.02;4.70;;;10.50;41.10;;;;;;5052167;28;20067;-71
2022/04/11 02:22:03;;;;;;;9.18;4.47;;;10.50;41.00;;;;;;5052079;28;20519;-72
2022/04/11 02:24:28;;;;;;;9.27;4.90;;;10.50;40.90;;;;;;5035522;28;20378;-75
2022/04/11 02:26:54;;;;;;;8.90;5.03;;;10.50;40.80;;;;;;5038115;28;20049;-74
2022/04/11 02:29:20;;;;;;;8.48;5.40;;;10.50;41.20;;;;;;5056094;28;20025;-73
2022/04/11 02:31:45;;;;;;;12.13;5.60;;;10.50;41.30;;;;;;5056109;28;20032;-72
2022/04/11 02:34:12;;;;;;;11.00;6.20;;;10.40;41.00;;;;;;5038172;28;20024;-71
2022/04/11 02:36:37;;;;;;;9.15;5.47;;;10.40;41.30;;;;;;5055966;28;20025;-71
2022/04/11 02:39:03;;;;;;;8.43;5.28;;;10.30;41.30;;;;;;5055854;28;20028;-72
2022/04/11 02:41:29;;;;;;;7.53;4.93;;;10.20;41.60;;;;;;5055743;28;20466;-72
2022/04/11 02:43:54;;;;;;;8.40;4.78;;;10.10;41.60;;;;;;5055640;28;20032;-72
2022/04/11 02:46:20;;;;;;;9.57;4.40;;;10.10;41.60;;;;;;5055516;28;20017;-73
2022/04/11 02:48:45;;;;;;;8.40;4.85;;;10.10;41.50;;;;;;5055472;28;20216;-72
2022/04/11 02:51:11;;;;;;;7.32;4.03;;;10.00;41.30;;;;;;5055769;28;20033;-73
2022/04/11 02:53:37;;;;;;;7.78;4.00;;;10.00;41.20;;;;;;5055502;28;20025;-75
2022/04/11 02:56:03;;;;;;;6.75;4.03;;;10.00;41.30;;;;;;5055749;28;20025;-73
2022/04/11 02:58:28;;;;;;;7.07;4.07;;;9.90;42.20;;;;;;5056028;28;20130;-71
2022/04/11 03:00:54;;;;;;;8.23;3.67;;;9.80;42.40;;;;;;5037406;28;20021;-73
2022/04/11 03:03:21;;;;;;;7.05;3.40;;;9.90;42.10;;;;;;5055266;28;20454;-72
2022/04/11 03:05:47;;;;;;;6.57;3.75;;;9.90;42.00;;;;;;5055362;28;20024;-71
2022/04/11 03:08:13;;;;;;;5.93;3.50;;;9.90;42.10;;;;;;5055272;28;20405;-73
2022/04/11 03:10:39;;;;;;;5.80;3.15;;;9.80;42.00;;;;;;5055186;28;20076;-72
2022/04/11 03:13:04;;;;;;;6.07;3.10;;;9.90;42.00;;;;;;5055034;28;20029;-69
2022/04/11 03:15:30;;;;;;;10.20;3.25;;;9.90;42.10;;;;;;5055059;28;20528;-70
2022/04/11 03:17:56;;;;;;;4.47;2.60;;;9.80;41.70;;;;;;5036979;28;20031;-72
2022/04/11 03:20:21;;;;;;;7.38;2.92;;;9.80;41.80;;;;;;5055056;28;20108;-72
2022/04/11 03:22:47;;;;;;;7.75;3.28;;;9.70;41.90;;;;;;5055113;28;20090;-70
2022/04/11 03:25:13;;;;;;;6.55;2.88;;;9.80;41.90;;;;;;5054788;28;20029;-71
2022/04/11 03:27:39;;;;;;;5.90;2.75;;;9.80;42.20;;;;;;5054993;28;20063;-71
2022/04/11 03:30:05;;;;;;;5.45;2.90;;;9.70;41.80;;;;;;5054751;28;20096;-71
2022/04/11 03:32:31;;;;;;;5.22;2.65;;;9.70;42.30;;;;;;5054590;28;20029;-70
2022/04/11 03:34:57;;;;;;;5.57;2.85;;;9.70;42.10;;;;;;5054623;28;20079;-71
2022/04/11 03:37:24;;;;;;;6.10;2.53;;;9.70;42.20;;;;;;5054353;28;20028;-71
2022/04/11 03:39:49;;;;;;;5.40;2.47;;;9.70;42.10;;;;;;5054724;28;20195;-74
2022/04/11 03:42:15;;;;;;;7.55;3.10;;;9.80;42.20;;;;;;5054515;28;20115;-70
2022/04/11 03:44:42;;;;;;;6.03;2.63;;;9.80;42.30;;;;;;5054323;28;20021;-72
2022/04/11 03:47:08;;;;;;;5.57;2.55;;;9.80;42.10;;;;;;5054679;28;20028;-69
2022/04/11 03:49:34;;;;;;;5.75;2.63;;;9.80;42.10;;;;;;5054469;28;20056;-69
2022/04/11 03:51:59;;;;;;;5.55;2.38;;;9.70;42.00;;;;;;5054513;28;20036;-70
2022/04/11 03:54:25;;;;;;;5.13;2.05;;;9.60;42.20;;;;;;5054327;28;20055;-72
2022/04/11 03:56:51;;;;;;;5.15;2.60;;;9.60;42.30;;;;;;5036412;28;20025;-71
2022/04/11 03:59:16;;;;;;;5.97;2.40;;;9.60;42.20;;;;;;5054158;28;20056;-71
2022/04/11 04:01:42;;;;;;;7.72;2.50;;;9.50;42.00;;;;;;5054291;28;20040;-72
2022/04/11 04:04:08;;;;;;;5.78;2.63;;;9.50;42.20;;;;;;5053950;28;20035;-72
2022/04/11 04:06:34;;;;;;;6.28;2.60;;;9.50;42.30;;;;;;5035850;28;20017;-70
2022/04/11 04:09:00;;;;;;;8.85;2.83;;;9.50;42.30;;;;;;5053777;28;20045;-72
2022/04/11 04:11:25;;;;;;;5.10;2.40;;;9.50;42.40;;;;;;5053915;28;20096;-71
2022/04/11 04:13:51;;;;;;;6.53;2.42;;;9.50;42.40;;;;;;5053803;28;20516;-72
2022/04/11 04:16:17;;;;;;;4.82;2.50;;;9.50;42.20;;;;;;5053735;28;20029;-72
2022/04/11 04:18:43;;;;;;;6.03;2.55;;;9.50;42.50;;;;;;5053901;28;20021;-75
2022/04/11 04:21:08;;;;;;;6.35;2.88;;;9.50;42.40;;;;;;5053792;28;20073;-74
2022/04/11 04:23:34;;;;;;;7.40;2.85;;;9.60;42.60;;;;;;5053774;28;20393;-72
2022/04/11 04:25:59;;;;;;;5.85;2.67;;;9.60;42.60;;;;;;5053981;28;20032;-74
2022/04/11 04:28:25;;;;;;;5.53;3.08;;;9.50;42.70;;;;;;5054667;28;20154;-71
2022/04/11 04:30:51;;;;;;;5.15;2.80;;;9.60;42.60;;;;;;5053731;28;20393;-73
2022/04/11 04:33:17;;;;;;;6.57;2.83;;;9.60;42.40;;;;;;5053718;28;20482;-74
2022/04/11 04:35:43;;;;;;;8.05;3.00;;;9.50;42.80;;;;;;5053498;28;20025;-72
2022/04/11 04:38:08;;;;;;;7.68;3.58;;;9.50;42.60;;;;;;5053643;28;20029;-73
2022/04/11 04:40:34;;;;;;;10.40;3.30;;;9.50;42.80;;;;;;5053466;28;20094;-71
2022/04/11 04:43:00;;;;;;;5.18;2.40;;;9.50;42.70;;;;;;5053399;28;20489;-74
2022/04/11 04:45:26;;;;;;;9.73;2.78;;;9.40;42.70;;;;;;5053525;28;20025;-72
2022/04/11 04:47:51;;;;;;;6.28;2.70;;;9.50;42.80;;;;;;5052782;28;20596;-72
2022/04/11 04:50:17;;;;;;;5.30;2.70;;;9.40;42.80;;;;;;5053199;28;20041;-72
2022/04/11 04:52:43;;;;;;;6.53;2.60;;;9.30;42.50;;;;;;5053430;28;20029;-73
2022/04/11 04:55:09;;;;;;;5.35;2.45;;;9.30;42.60;;;;;;5053460;28;20429;-75
2022/04/11 04:57:34;;;;;;;6.07;2.75;;;9.30;42.50;;;;;;5053378;28;20025;-74
2022/04/11 05:00:01;;;;;;;7.90;2.60;;;9.20;42.60;;;;;;5053582;28;20351;-72
2022/04/11 05:02:34;;;;;;;6.07;2.60;;;9.10;42.60;;;;;;5053173;28;20045;-73
2022/04/11 05:05:05;;;;;;;5.30;2.85;;;9.10;42.40;;;;;;5053348;28;20025;-72
2022/04/11 05:07:31;;;;;;;7.47;2.72;;;9.10;43.40;;;;;;5053637;28;20112;-74
2022/04/11 05:09:57;;;;;;;8.02;3.42;;;9.20;43.80;;;;;;5053682;28;20049;-74
2022/04/11 05:12:22;;;;;;;11.50;2.80;;;9.10;43.50;;;;;;5054182;28;20025;-75
2022/04/11 05:14:48;;;;;;;6.95;3.05;;;9.20;43.60;;;;;;5053876;28;20025;-73
2022/04/11 05:17:14;;;;;;;8.32;2.60;;;9.20;43.20;;;;;;5053571;28;20450;-70
2022/04/11 05:19:39;;;;;;;8.07;3.20;;;9.20;43.40;;;;;;5035583;28;20020;-70
2022/04/11 05:22:06;;;;;;;7.10;2.80;;;9.30;43.60;;;;;;5052077;28;20481;-74
2022/04/11 05:24:32;;;;;;;14.27;3.15;;;9.40;43.60;;;;;;5052892;28;20055;-74
2022/04/11 05:26:58;;;;;;;6.45;2.85;;;9.50;42.80;;;;;;5052649;28;20209;-74
2022/04/11 05:29:24;;;;;;;8.02;3.13;;;9.50;43.00;;;;;;5034912;28;20060;-75
2022/04/11 05:31:49;;;;;;;9.73;2.88;;;9.50;42.80;;;;;;5043766;28;20476;-75
2022/04/11 05:34:15;;;;;;;13.93;3.40;;;9.50;42.90;;;;;;5049870;28;20398;-74
2022/04/11 05:36:41;;;;;;;7.30;3.15;;;9.50;42.90;;;;;;5053943;28;20363;-78
2022/04/11 05:39:06;;;;;;;8.43;3.30;;;9.50;43.30;;;;;;5057010;28;20300;-76
2022/04/11 05:41:32;;;;;;;6.53;3.38;;;9.50;42.70;;;;;;5055634;28;20132;-77
2022/04/11 05:43:58;;;;;;;7.00;3.10;;;9.50;42.70;;;;;;5036357;28;20037;-76
2022/04/11 05:46:24;;;;;;;5.53;2.80;;;9.50;42.80;;;;;;5052623;28;20382;-76
2022/04/11 05:48:49;;;;;;;5.90;2.95;;;9.50;42.90;;;;;;5034609;28;20406;-80
2022/04/11 05:51:15;;;;;;;6.28;2.60;;;9.50;42.90;;;;;;5052096;28;20029;-73
2022/04/11 05:53:41;;;;;;;5.72;3.13;;;9.60;42.40;;;;;;5051518;28;20052;-71
2022/04/11 05:56:08;;;;;;;7.05;3.03;;;9.80;43.00;;;;;;5051373;28;20036;-74
2022/04/11 05:58:33;;;;;;;7.78;3.00;;;9.90;42.20;;;;;;5051704;28;20457;-74
2022/04/11 06:00:59;;;;;;;8.20;2.85;;;10.10;41.20;;;;;;5046053;28;20036;-75
2022/04/11 06:03:25;;;;;;;8.55;3.22;;;10.30;41.20;;;;;;5039153;28;20432;-77
2022/04/11 06:05:50;;;;;;;7.18;2.95;;;10.50;41.20;;;;;;5033772;28;20029;-77
2022/04/11 06:08:16;;;;;;;10.55;3.72;;;10.80;41.00;;;;;;5030343;28;20049;-75
2022/04/11 06:10:44;;;;;;;11.18;3.15;;;10.90;40.80;;;;;;5039001;28;20035;-76
2022/04/11 06:13:09;;;;;;;8.27;3.25;;;11.10;41.00;;;;;;5038261;28;20402;-76
2022/04/11 06:15:35;;;;;;;8.88;3.33;;;11.30;40.60;;;;;;5027557;28;20033;-76
2022/04/11 06:18:00;;;;;;;6.82;3.20;;;11.40;40.30;;;;;;5037188;28;20993;-74
2022/04/11 06:20:26;;;;;;;8.98;2.80;;;11.80;40.50;;;;;;5036481;28;20346;-76
2022/04/11 06:22:52;;;;;;;15.15;3.42;;;12.00;40.10;;;;;;5025306;28;20105;-78
2022/04/11 06:25:17;;;;;;;6.97;3.08;;;12.10;39.70;;;;;;5037781;28;20033;-77
2022/04/11 06:27:43;;;;;;;11.40;3.30;;;12.20;39.10;;;;;;5039445;28;20025;-75
2022/04/11 06:30:10;;;;;;;10.35;3.70;;;12.40;39.10;;;;;;5038027;28;20102;-75
2022/04/11 06:32:35;;;;;;;9.50;3.92;;;12.50;38.90;;;;;;5038478;28;20032;-78
2022/04/11 06:35:02;;;;;;;13.52;3.60;;;12.60;38.90;;;;;;5037930;28;20040;-75
2022/04/11 06:37:27;;;;;;;29.25;4.75;;;12.80;39.30;;;;;;5020083;28;20032;-78
2022/04/11 06:39:54;;;;;;;10.05;3.53;;;13.00;38.80;;;;;;5037293;28;20033;-76
2022/04/11 06:42:20;;;;;;;13.98;3.78;;;13.10;38.40;;;;;;5038582;28;20071;-75
2022/04/11 06:44:46;;;;;;;7.88;3.60;;;13.20;38.50;;;;;;5039336;28;20345;-74
2022/04/11 06:47:12;;;;;;;8.65;3.58;;;13.20;38.30;;;;;;5038451;28;20257;-74
2022/04/11 06:49:38;;;;;;;14.98;4.15;;;13.40;38.50;;;;;;4996779;28;1244453;-76
2022/04/11 06:52:05;;;;;;;11.82;3.88;;;13.40;38.60;;;;;;5040981;28;20103;-76
2022/04/11 06:54:30;;;;;;;9.05;3.13;;;13.60;38.30;;;;;;5039041;28;20041;-77
2022/04/11 06:56:57;;;;;;;10.75;4.13;;;13.60;38.10;;;;;;5040645;28;20110;-77
2022/04/11 06:59:23;;;;;;;15.20;3.55;;;13.70;38.20;;;;;;5040724;28;20039;-77
2022/04/11 07:01:51;;;;;;;7.65;3.00;;;13.80;38.50;;;;;;5041058;28;20033;-76
2022/04/11 07:04:17;;;;;;;10.05;3.30;;;13.80;37.80;;;;;;5038933;28;20516;-74
2022/04/11 07:06:43;;;;;;;12.63;3.33;;;14.00;38.50;;;;;;4994749;28;20033;-75
2022/04/11 07:09:09;;;;;;;18.52;3.30;;;14.20;37.90;;;;;;5042543;28;20110;-79
2022/04/11 07:11:34;;;;;;;16.95;3.65;;;14.30;37.90;;;;;;5041850;28;20120;-75
2022/04/11 07:14:00;;;;;;;10.05;3.28;;;14.40;37.90;;;;;;5037382;28;20119;-77
2022/04/11 07:16:26;;;;;;;11.45;3.20;;;14.60;37.90;;;;;;5043118;28;20033;-79
2022/04/11 07:18:52;;;;;;;21.73;3.80;;;14.60;37.30;;;;;;5042925;28;20227;-76
2022/04/11 07:21:18;;;;;;;6.57;2.92;;;14.50;37.40;;;;;;5024336;28;20148;-76
2022/04/11 07:23:44;;;;;;;9.85;3.53;;;14.60;37.60;;;;;;5041700;28;20116;-75
2022/04/11 07:26:09;;;;;;;8.43;4.00;;;14.60;37.60;;;;;;5042476;28;20112;-78
2022/04/11 07:28:35;;;;;;;8.00;3.53;;;14.60;37.70;;;;;;5042861;28;20044;-72
2022/04/11 07:31:01;;;;;;;9.50;3.40;;;14.70;38.00;;;;;;5024299;28;20029;-71
2022/04/11 07:33:27;;;;;;;13.65;3.13;;;14.90;37.60;;;;;;5042549;28;20283;-71
2022/04/11 07:35:52;;;;;;;12.50;3.42;;;14.90;37.30;;;;;;5042655;28;20071;-73
2022/04/11 07:38:19;;;;;;;16.13;3.10;;;15.00;37.40;;;;;;5042576;28;20054;-73
2022/04/11 07:40:45;;;;;;;6.68;2.88;;;15.00;37.50;;;;;;5044766;28;20394;-72
2022/04/11 07:43:11;;;;;;;14.85;4.25;;;15.10;37.30;;;;;;5043132;28;20070;-72
2022/04/11 07:45:36;;;;;;;8.07;2.97;;;15.10;37.40;;;;;;5038827;28;20032;-70
2022/04/11 07:48:02;;;;;;;6.90;3.03;;;14.90;36.90;;;;;;5042213;28;20456;-74
2022/04/11 07:50:28;;;;;;;16.23;3.33;;;14.80;37.10;;;;;;5038512;28;20049;-73
2022/04/11 07:52:54;;;;;;;14.45;3.20;;;14.80;36.80;;;;;;5041398;28;20025;-72
2022/04/11 07:55:20;;;;;;;16.08;3.80;;;14.90;37.50;;;;;;5039434;28;20037;-72
2022/04/11 07:57:45;;;;;;;9.77;3.30;;;15.00;37.90;;;;;;5041085;28;20040;-72
2022/04/11 08:00:11;;;;;;;7.47;3.03;;;15.20;37.90;;;;;;5040486;28;20398;-74
2022/04/11 08:02:38;;;;;;;10.55;3.05;;;15.30;37.30;;;;;;5023564;28;20044;-73
2022/04/11 08:05:05;;;;;;;12.43;3.00;;;15.30;37.10;;;;;;5040251;28;20118;-76
2022/04/11 08:07:34;;;;;;;17.70;4.30;;;15.30;37.30;;;;;;5039495;28;20090;-72
2022/04/11 08:10:05;;;;;;;11.45;3.40;;;15.30;37.80;;;;;;5039288;28;20033;-74
2022/04/11 08:12:31;;;;;;;8.38;2.67;;;15.30;36.20;;;;;;5039927;28;20025;-73
2022/04/11 08:14:57;;;;;;;13.23;3.40;;;15.40;37.60;;;;;;5039183;28;20071;-74
2022/04/11 08:17:23;;;;;;;8.85;2.80;;;15.30;37.50;;;;;;5040542;28;20029;-73
2022/04/11 08:19:49;;;;;;;9.52;2.80;;;15.20;37.50;;;;;;5040597;28;20107;-72
2022/04/11 08:22:18;;;;;;;11.27;3.35;;;15.20;37.80;;;;;;5039585;28;20060;-72
2022/04/11 08:24:44;;;;;;;13.65;3.53;;;15.20;37.60;;;;;;5039299;28;20895;-74
2022/04/11 08:27:10;;;;;;;8.13;2.53;;;15.30;38.30;;;;;;5040254;28;20053;-73
2022/04/11 08:29:36;;;;;;;7.72;2.78;;;15.30;38.40;;;;;;5040661;28;20033;-71
2022/04/11 08:32:02;;;;;;;10.57;2.92;;;15.30;38.00;;;;;;5040386;28;20033;-72
2022/04/11 08:34:28;;;;;;;14.65;3.50;;;15.30;37.90;;;;;;5040501;28;20017;-72
2022/04/11 08:36:53;;;;;;;7.22;2.67;;;15.30;38.00;;;;;;5041329;28;20060;-74
2022/04/11 08:39:19;;;;;;;10.40;2.45;;;15.30;37.80;;;;;;5039984;28;20021;-72
2022/04/11 08:41:45;;;;;;;8.38;2.67;;;15.30;37.90;;;;;;5039537;28;20041;-72
2022/04/11 08:44:12;;;;;;;7.93;2.70;;;15.40;38.30;;;;;;5040304;28;20048;-74
2022/04/11 08:46:39;;;;;;;8.32;2.70;;;15.40;38.40;;;;;;5022146;28;20084;-72
2022/04/11 08:49:06;;;;;;;12.98;5.88;;;15.50;38.70;;;;;;5039354;28;20068;-72
2022/04/11 08:51:34;;;;;;;6.80;3.15;;;15.60;38.80;;;;;;5022023;28;20036;-73
2022/04/11 08:54:01;;;;;;;9.00;3.03;;;15.60;38.80;;;;;;5037459;28;20029;-72
2022/04/11 08:56:28;;;;;;;10.27;2.85;;;15.70;39.10;;;;;;5039345;28;20103;-74
2022/04/11 08:58:54;;;;;;;10.40;3.63;;;15.70;39.20;;;;;;5039433;28;20061;-74
2022/04/11 09:01:20;;;;;;;8.88;3.00;;;15.70;39.20;;;;;;5039260;28;20063;-73
2022/04/11 09:03:47;;;;;;;10.65;3.58;;;15.80;39.10;;;;;;5039239;28;20070;-73
2022/04/11 09:06:17;;;;;;;6.10;2.47;;;15.80;39.30;;;;;;5021748;28;20032;-73
2022/04/11 09:08:53;;;;;;;8.38;3.03;;;15.90;38.80;;;;;;5039603;28;20135;-72
2022/04/11 09:11:37;;;;;;;5.63;2.00;;;16.00;38.00;;;;;;5039856;28;20674;-73
2022/04/11 09:14:07;;;;;;;5.32;1.70;;;16.00;37.40;;;;;;5021181;28;20527;-73
2022/04/11 09:17:02;;;;;;;9.07;2.15;;;16.00;38.10;;;;;;5039430;28;20032;-71
2022/04/11 09:19:29;;;;;;;4.80;1.85;;;16.10;38.30;;;;;;5008598;28;20045;-73
2022/04/11 09:21:54;;;;;;;8.45;2.60;;;16.20;38.30;;;;;;5039355;28;20573;-73
2022/04/11 09:24:22;;;;;;;6.63;1.98;;;16.20;38.00;;;;;;5031414;28;20041;-73
2022/04/11 09:26:55;;;;;;;7.65;1.70;;;16.20;37.80;;;;;;5038884;28;20021;-73
2022/04/11 09:29:22;;;;;;;6.97;1.80;;;16.30;37.40;;;;;;5039906;28;20477;-74
2022/04/11 09:31:48;;;;;;;7.03;1.80;;;16.30;37.40;;;;;;5039390;28;20029;-73
2022/04/11 09:34:16;;;;;;;7.65;2.28;;;16.40;37.10;;;;;;5038362;28;20079;-76
2022/04/11 09:36:49;;;;;;;9.75;3.40;;;16.50;37.40;;;;;;5038891;28;20032;-75
2022/04/11 09:39:15;;;;;;;7.97;1.87;;;16.50;37.30;;;;;;5038650;28;20244;-74
2022/04/11 09:41:43;;;;;;;4.38;1.50;;;16.60;37.30;;;;;;5038708;28;20083;-75
2022/04/11 09:44:26;;;;;;;6.47;1.50;;;16.60;37.10;;;;;;5020659;28;20055;-76
2022/04/11 09:47:03;;;;;;;9.77;1.67;;;16.70;35.90;;;;;;5038914;28;20040;-73
2022/04/11 09:49:31;;;;;;;5.43;1.65;;;16.70;36.50;;;;;;5038938;28;20061;-75
2022/04/11 09:52:11;;;;;;;6.65;1.60;;;16.70;35.90;;;;;;5039151;28;20032;-73
2022/04/11 09:54:45;;;;;;;4.85;1.77;;;16.80;36.60;;;;;;5037414;28;20158;-77
2022/04/11 09:57:16;;;;;;;5.72;1.60;;;16.80;36.80;;;;;;5038867;28;20025;-76
2022/04/11 09:59:43;;;;;;;7.20;1.67;;;16.80;36.50;;;;;;5039672;28;20033;-75
2022/04/11 10:02:14;;;;;;;9.85;2.10;;;16.80;36.90;;;;;;5038947;28;20036;-73
2022/04/11 10:04:40;;;;;;;5.85;1.90;;;16.90;37.00;;;;;;5039142;28;20039;-72
2022/04/11 10:07:14;;;;;;;9.75;1.92;;;17.00;36.80;;;;;;5039110;28;20025;-71
2022/04/11 10:09:40;;;;;;;4.88;1.75;;;17.10;36.70;;;;;;5038569;28;20032;-71
2022/04/11 10:12:08;;;;;;;5.65;1.65;;;17.10;36.90;;;;;;5038764;28;20506;-74
2022/04/11 10:14:34;;;;;;;7.60;1.67;;;17.20;36.30;;;;;;5038797;28;20438;-74
2022/04/11 10:17:02;;;;;;;7.55;1.95;;;17.20;35.90;;;;;;5039250;28;20037;-73
2022/04/11 10:19:37;;;;;;;5.15;1.60;;;17.30;35.70;;;;;;5040931;28;20029;-74
2022/04/11 10:22:12;;;;;;;4.90;1.48;;;17.30;35.90;;;;;;5039159;28;20261;-74
2022/04/11 10:24:46;;;;;;;8.65;1.90;;;17.40;35.30;;;;;;5038160;28;20033;-73
2022/04/11 10:27:25;;;;;;;7.63;1.50;;;17.40;34.90;;;;;;5038582;28;20585;-76
2022/04/11 10:29:55;;;;;;;6.70;1.92;;;17.40;34.80;;;;;;5039130;28;20076;-73
2022/04/11 10:32:27;;;;;;;5.35;1.75;;;17.50;34.90;;;;;;5041017;28;20021;-74
2022/04/11 10:35:05;;;;;;;4.60;1.58;;;17.60;34.80;;;;;;5040557;28;20033;-74
2022/04/11 10:37:40;;;;;;;8.80;1.80;;;17.60;34.90;;;;;;5038251;28;20214;-73
2022/04/11 10:40:20;;;;;;;4.00;1.42;;;17.60;34.50;;;;;;5039921;28;20044;-72
2022/04/11 10:43:01;;;;;;;4.00;1.50;;;17.70;34.30;;;;;;5039567;28;20041;-69
2022/04/11 10:45:40;;;;;;;9.18;2.13;;;17.70;34.50;;;;;;5042401;28;20095;-72
2022/04/11 10:48:08;;;;;;;5.95;1.90;;;17.80;34.60;;;;;;5041436;28;20111;-71
2022/04/11 10:50:34;;;;;;;4.97;2.00;;;17.90;34.50;;;;;;5041314;28;20095;-71
2022/04/11 10:53:27;;;;;;;6.13;2.00;;;18.00;34.90;;;;;;5041147;28;20029;-72
2022/04/11 10:56:02;;;;;;;3.78;1.52;;;18.20;35.40;;;;;;5037997;28;20496;-71
2022/04/11 10:58:50;;;;;;;6.22;1.77;;;18.20;33.60;;;;;;5041381;28;20134;-72
2022/04/11 11:01:49;;;;;;;5.82;1.70;;;18.30;33.70;;;;;;5040671;28;20444;-73
2022/04/11 11:04:20;;;;;;;4.47;1.67;;;18.40;33.00;;;;;;5023099;28;20037;-74
2022/04/11 11:06:46;;;;;;;10.77;2.10;;;18.40;33.00;;;;;;5041081;28;20443;-76
2022/04/11 11:09:16;;;;;;;6.22;1.88;;;18.50;33.20;;;;;;5041326;28;20146;-72
2022/04/11 11:11:42;;;;;;;5.80;1.88;;;18.60;33.20;;;;;;5041298;28;20478;-75
2022/04/11 11:14:55;;;;;;;3.40;1.40;;;18.60;32.80;;;;;;5040863;28;20104;-73
2022/04/11 11:17:20;;;;;;;4.10;1.60;;;18.70;33.40;;;;;;5036764;28;20040;-72
2022/04/11 11:20:03;;;;;;;4.13;1.67;;;18.70;32.40;;;;;;5022491;28;20036;-73
2022/04/11 11:22:34;;;;;;;8.93;1.85;;;18.70;32.80;;;;;;5039293;28;20106;-71
2022/04/11 11:25:17;;;;;;;5.95;1.80;;;18.80;33.00;;;;;;5040207;28;20040;-72
2022/04/11 11:27:44;;;;;;;6.03;1.98;;;18.80;33.20;;;;;;5041095;28;20025;-72
2022/04/11 11:30:11;;;;;;;5.30;2.05;;;18.90;33.10;;;;;;5041732;28;20958;-71
2022/04/11 11:32:41;;;;;;;4.97;1.60;;;19.00;33.90;;;;;;5049214;28;20107;-71
2022/04/11 11:35:11;;;;;;;6.55;1.55;;;19.10;33.40;;;;;;5031868;28;20035;-70
2022/04/11 11:37:37;;;;;;;3.35;1.20;;;19.30;33.20;;;;;;5045707;28;20075;-70
2022/04/11 11:40:04;;;;;;;8.35;1.95;;;19.30;33.00;;;;;;5046658;28;20471;-70
2022/04/11 11:42:39;;;;;;;5.78;1.60;;;19.30;33.90;;;;;;5045742;28;20041;-72
2022/04/11 11:45:06;;;;;;;6.85;1.83;;;19.30;33.60;;;;;;5045373;28;20040;-71
2022/04/11 11:47:32;;;;;;;5.82;1.42;;;19.40;33.70;;;;;;5041715;28;20029;-70
2022/04/11 11:50:05;;;;;;;6.18;1.83;;;19.50;33.50;;;;;;5042013;28;20057;-69
2022/04/11 11:52:30;;;;;;;5.65;1.40;;;19.60;33.20;;;;;;5041872;28;20075;-70
2022/04/11 11:54:56;;;;;;;6.30;1.45;;;19.60;32.80;;;;;;5040971;28;20431;-68
2022/04/11 11:57:28;;;;;;;5.90;1.35;;;19.70;32.60;;;;;;5040001;28;20393;-70
2022/04/11 12:00:08;;;;;;;5.93;1.70;;;19.70;33.30;;;;;;5040182;28;20857;-69
2022/04/11 12:05:28;;;;;;;4.70;1.55;;;19.80;32.80;;;;;;5040177;28;20402;-66
2022/04/11 12:08:03;;;;;;;8.35;1.77;;;19.90;33.40;;;;;;5039961;28;20098;-69
2022/04/11 12:10:29;;;;;;;3.92;1.30;;;20.00;32.40;;;;;;5021528;28;20067;-70
2022/04/11 12:12:55;;;;;;;3.90;1.20;;;20.00;32.10;;;;;;5021743;28;20036;-70
2022/04/11 12:15:22;;;;;;;6.00;1.08;;;20.00;31.20;;;;;;5039530;28;20032;-71
2022/04/11 12:17:50;;;;;;;5.85;1.38;;;20.00;31.90;;;;;;5039709;28;20102;-69
2022/04/11 12:20:21;;;;;;;3.80;1.30;;;20.00;31.80;;;;;;5039126;28;20481;-69
2022/04/11 12:23:07;;;;;;;3.38;1.20;;;20.00;31.80;;;;;;5040158;28;20091;-70
2022/04/11 12:25:42;;;;;;;5.60;1.48;;;20.00;31.70;;;;;;5039447;28;20086;-69
2022/04/11 12:28:11;;;;;;;2.90;1.13;;;20.00;31.60;;;;;;5039821;28;20037;-72
2022/04/11 12:30:38;;;;;;;6.13;1.20;;;20.00;32.20;;;;;;5039275;28;20409;-72
2022/04/11 12:33:04;;;;;;;4.93;1.50;;;20.00;32.30;;;;;;5040696;28;20304;-71
2022/04/11 12:35:30;;;;;;;4.68;1.30;;;20.00;30.90;;;;;;5039384;28;20052;-70
2022/04/11 12:38:00;;;;;;;4.95;1.42;;;20.00;31.00;;;;;;5039587;28;20029;-69
2022/04/11 12:40:44;;;;;;;5.25;1.40;;;19.90;31.80;;;;;;5040212;28;20037;-69
2022/04/11 12:43:13;;;;;;;5.38;1.50;;;20.00;31.50;;;;;;5039645;28;20325;-69
2022/04/11 12:45:39;;;;;;;4.57;1.30;;;20.00;31.20;;;;;;5039860;28;20408;-72
2022/04/11 12:48:09;;;;;;;12.63;1.52;;;20.00;30.80;;;;;;5040490;28;20056;-71
2022/04/11 12:50:36;;;;;;;3.17;1.20;;;20.00;31.20;;;;;;5039961;28;20417;-72
2022/04/11 12:53:03;;;;;;;4.45;1.10;;;20.00;31.10;;;;;;5040011;28;20040;-70
2022/04/11 12:55:31;;;;;;;2.88;1.15;;;20.00;31.20;;;;;;5040601;28;20032;-71